Pagina principale
METAR-TAF:

METAR-TAF

Aeroporti :

Aeroporto Internazionale di Damasco

Damasco, Siria

latitudine: 33-25N, longitudine: 036-31E, altezza: 608 m

Osservazione

Il bollettino è stato emesso 20 minuti fa, alle 09:00 UTC
Vento 14 kt da ovest
Temperature 31°C
Umidità 26%
Pressione 1011 hPa
Visibilità 10 km o più
nessuna nube inferiore a 1500 m e nessun cumulonembo

METAR: OSDI 200900Z 27014KT CAVOK 31/09 Q1011

Ora: 12:20 (09:20 UTC)

Previsione

Il bollettino è stato emesso 11 ore e 50 minuti fa, alle 21:30 UTC
Previsione valida dal 20 alle 00 UTC al 21 alle 06 UTC
Vento 3 kt da direzioni variabili
Visibilità 10 km o più
nessuna nube inferiore a 1500 m e nessun cumulonembo
Temporaneamente
dal 20 alle 09 UTC al 20 alle 18 UTC
Vento 15 kt da ovest
Visibilità 10 km o più
Nubi sparse ad un'altezza di 3000 ft

TAF: OSDI 192130Z 2000/2106 VRB03KT CAVOK TEMPO 2009/2018 26015KT 9999 SCT030

Osservazioni e previsioni meteorologiche di più di 4000 aeroporti (messaggi METAR e TAF).

Le stazioni disponibili sono rappresentate dai dischi gialli e rossi sulla carta.

Puntare il mouse per vedere il nome della stazione.

Clicca sopra per visualizzare le osservazioni e previsioni meteorologiche.

Per cambiare la mappa : fare clic sui pulsanti verdi con una croce nera per ingrandire, il pulsante verde con un trattino per diminuire, o sulla freccia verde per le mappe adiacenti.


METAR-TAF: